Liberte — WDG4345 — position and weather

sailwx.info

Track history (hours):
 
Tides and Currents Weather Stations Pressure Air Temp Water Temp Dewpoint Dewpoint Depression Visibility Wind Speed Wind Dir Waves Ship Positions

Liberte

Owner: Liberte Marine LLC, Tucson, AZ. More information available from US FCC via Universal Licensing System and Coast Guard Vessel Documentation Center.

Last reported at 2018-Jul-29 06:24 UTC. Time now 2018-Aug-20 16:19 UTC.
Position N 32°26' W 117°28'.
Warning: this ship's position is 22 days out of date.

Length 14 m.

Type: Sailing vessel. MMSI: 367535590.

Date/timePositionNaut miles runAvg speedWind from/ knotsBaromVisibWave heightAir tempDewpointWater temp
2018-Jul-29 06:24N 32°26' W 117°28'3 7.4
2018-Jul-29 06:00N 32°29' W 117°30'4 7.7
2018-Jul-29 05:30N 32°32' W 117°31'4 7.7
2018-Jul-29 04:59N 32°36' W 117°33'4 7.7
2018-Jul-29 04:30N 32°40' W 117°34'4 7.7
2018-Jul-29 04:00N 32°43' W 117°35'4 7.6
2018-Jul-29 03:31N 32°47' W 117°36'4 7.7
2018-Jul-29 02:59N 32°51' W 117°37'4 7.7
2018-Jul-29 02:30N 32°54' W 117°39'4 7.6
2018-Jul-29 02:00N 32°58' W 117°41'4 7.9
2018-Jul-29 01:30N 33°02' W 117°43'4 7.6
2018-Jul-29 00:59N 33°05' W 117°44'4 7.5
2018-Jul-29 00:30N 33°09' W 117°46'4 7.4
2018-Jul-29 00:00N 33°12' W 117°48'4 7.3
2018-Jul-28 23:30N 33°15' W 117°50'4 7.0
2018-Jul-28 22:59N 33°18' W 117°52'4 6.8
2018-Jul-28 22:27N 33°22' W 117°54'3 6.6
2018-Jul-28 21:58N 33°24' W 117°56'17 6.1
2018-Jul-28 19:12N 33°39' W 118°06'1 6.6
2018-Jul-28 19:00N 33°40' W 118°06'3 5.7
2018-Jul-28 18:30N 33°43' W 118°08'3 6.0
2018-Jul-28 18:01N 33°45' W 118°10'1 1.9
2018-Jul-28 17:25N 33°46' W 118°11'0 0.0
2018-Jul-28 16:52N 33°46' W 118°11'0 0.0
2018-Jul-28 16:25N 33°46' W 118°11'0 0.0
2018-Jul-28 15:55N 33°46' W 118°11'0 0.0
2018-Jul-28 15:25N 33°46' W 118°11'0 0.0
2018-Jul-28 14:49N 33°46' W 118°11'0 0.0
2018-Jul-28 14:22N 33°46' W 118°11'0 0.0
2018-Jul-28 13:52N 33°46' W 118°11'0 0.0
2018-Jul-28 13:28N 33°46' W 118°11'0 0.0
2018-Jul-28 12:52N 33°46' W 118°11'0 0.0
2018-Jul-28 12:28N 33°46' W 118°11'0 0.0
2018-Jul-28 11:49N 33°46' W 118°11'0 0.0
2018-Jul-28 11:28N 33°46' W 118°11'0 0.0
2018-Jul-28 10:58N 33°46' W 118°11'0 0.0
2018-Jul-28 10:28N 33°46' W 118°11'0 0.0
2018-Jul-28 09:52N 33°46' W 118°11'0 0.0
2018-Jul-28 09:19N 33°46' W 118°11'0 0.0
2018-Jul-28 08:52N 33°46' W 118°11'0 0.0
2018-Jul-28 08:28N 33°46' W 118°11'0 0.0
2018-Jul-28 07:55N 33°46' W 118°11'0 0.0
2018-Jul-28 07:25N 33°46' W 118°11'0 0.0
2018-Jul-28 06:52N 33°46' W 118°11'0 0.0
2018-Jul-28 06:19N 33°46' W 118°11'0 0.0
2018-Jul-28 05:58N 33°46' W 118°11'0 0.0
2018-Jul-28 05:13N 33°46' W 118°11'0 0.0
2018-Jul-28 04:49N 33°46' W 118°11'0 0.0
2018-Jul-28 04:25N 33°46' W 118°11'0 0.0
2018-Jul-28 03:58N 33°46' W 118°11'0 0.0
2018-Jul-28 03:28N 33°46' W 118°11'0 0.0
2018-Jul-28 02:58N 33°46' W 118°11'0 0.0
2018-Jul-28 02:28N 33°46' W 118°11'0 0.0
2018-Jul-28 01:58N 33°46' W 118°11'0 0.0
2018-Jul-28 01:22N 33°46' W 118°11'0 0.0
2018-Jul-28 00:58N 33°46' W 118°11'0 0.0
2018-Jul-28 00:28N 33°46' W 118°11'0 0.0
2018-Jul-27 23:52N 33°46' W 118°11'0 0.0
2018-Jul-27 23:28N 33°46' W 118°11'0 0.0
2018-Jul-27 22:52N 33°46' W 118°11'0 0.0
2018-Jul-27 22:28N 33°46' W 118°11'0 0.0
2018-Jul-27 21:55N 33°46' W 118°11'0 0.0
2018-Jul-27 21:19N 33°46' W 118°11'0 0.0
2018-Jul-27 20:52N 33°46' W 118°11'0 0.0
2018-Jul-27 20:19N 33°46' W 118°11'0 0.0
2018-Jul-27 19:58N 33°46' W 118°11'0 0.0
2018-Jul-27 19:22N 33°46' W 118°11'0 0.0
2018-Jul-27 18:55N 33°46' W 118°11'0 0.0
2018-Jul-27 18:25N 33°46' W 118°11'0 0.0
2018-Jul-27 17:55N 33°46' W 118°11'0 0.0
2018-Jul-27 17:28N 33°46' W 118°11'0 0.0
2018-Jul-27 16:58N 33°46' W 118°11'0 0.0
2018-Jul-27 16:25N 33°46' W 118°11'0 0.0
2018-Jul-27 15:58N 33°46' W 118°11'0 0.0
2018-Jul-27 15:25N 33°46' W 118°11'0 0.0
2018-Jul-27 14:58N 33°46' W 118°11'0 0.0
2018-Jul-27 14:28N 33°46' W 118°11'0 0.0
2018-Jul-27 13:55N 33°46' W 118°11'0 0.0
2018-Jul-27 13:19N 33°46' W 118°11'0 0.0
2018-Jul-27 12:58N 33°46' W 118°11'0 0.0
2018-Jul-27 12:25N 33°46' W 118°11'0 0.0
2018-Jul-27 11:55N 33°46' W 118°11'0 0.0
2018-Jul-27 11:16N 33°46' W 118°11'0 0.0
2018-Jul-27 10:43N 33°46' W 118°11'0 0.0
2018-Jul-27 10:28N 33°46' W 118°11'0 0.0
2018-Jul-27 09:55N 33°46' W 118°11'0 0.0
2018-Jul-27 09:28N 33°46' W 118°11'0 0.0
2018-Jul-27 08:46N 33°46' W 118°11'0 0.0
2018-Jul-27 08:22N 33°46' W 118°11'0 0.0
2018-Jul-27 07:52N 33°46' W 118°11'0 0.0
2018-Jul-27 07:22N 33°46' W 118°11'0 0.0
2018-Jul-27 06:55N 33°46' W 118°11'0 0.0
2018-Jul-27 06:13N 33°46' W 118°11'0 0.0
2018-Jul-27 05:49N 33°46' W 118°11'0 0.0
2018-Jul-27 05:28N 33°46' W 118°11'0 0.0
2018-Jul-27 04:49N 33°46' W 118°11'0 0.0
2018-Jul-27 04:28N 33°46' W 118°11'0 0.0
2018-Jul-27 03:55N 33°46' W 118°11'0 0.0
2018-Jul-27 03:25N 33°46' W 118°11'0 0.0
2018-Jul-27 02:52N 33°46' W 118°11'0 0.0
2018-Jul-27 02:22N 33°46' W 118°11'0 0.0
2018-Jul-27 01:58N 33°46' W 118°11'0 0.0
2018-Jul-27 01:22N 33°46' W 118°11'0 0.0
2018-Jul-27 00:58N 33°46' W 118°11'0 0.0
2018-Jul-27 00:25N 33°46' W 118°11'0 0.0
2018-Jul-26 23:58N 33°46' W 118°11'0 0.0
2018-Jul-26 23:28N 33°46' W 118°11'0 0.0
2018-Jul-26 22:46N 33°46' W 118°11'0 0.0
2018-Jul-26 22:25N 33°46' W 118°11'0 0.0
2018-Jul-26 21:52N 33°46' W 118°11'0 0.0
2018-Jul-26 21:04N 33°46' W 118°11'0 0.0
2018-Jul-26 20:46N 33°46' W 118°11'0 0.0
2018-Jul-26 20:28N 33°46' W 118°11'0 0.0
2018-Jul-26 19:55N 33°46' W 118°11'0 0.0
2018-Jul-26 19:16N 33°46' W 118°11'0 0.0
2018-Jul-26 18:52N 33°46' W 118°11'0 0.0
2018-Jul-26 18:25N 33°46' W 118°11'0 0.0
2018-Jul-26 17:58N 33°46' W 118°11'0 0.0
2018-Jul-26 17:28N 33°46' W 118°11'0 0.0
2018-Jul-26 16:49N 33°46' W 118°11'0 0.0
2018-Jul-26 16:22N 33°46' W 118°11'0 0.0
2018-Jul-26 15:13N 33°46' W 118°11'0 0.0
2018-Jul-26 14:58N 33°46' W 118°11'0 0.0
2018-Jul-26 14:28N 33°46' W 118°11'0 0.0
2018-Jul-26 13:52N 33°46' W 118°11'0 0.0
2018-Jul-26 13:28N 33°46' W 118°11'0 0.0
2018-Jul-26 12:58N 33°46' W 118°11'0 0.0
2018-Jul-26 12:19N 33°46' W 118°11'0 0.0
2018-Jul-26 11:58N 33°46' W 118°11'0 0.0
2018-Jul-26 11:28N 33°46' W 118°11'0 0.0
2018-Jul-26 10:52N 33°46' W 118°11'0 0.0
2018-Jul-26 10:22N 33°46' W 118°11'0 0.0
2018-Jul-26 09:58N 33°46' W 118°11'0 0.0
2018-Jul-26 09:28N 33°46' W 118°11'0 0.0
2018-Jul-26 08:58N 33°46' W 118°11'0 0.0
2018-Jul-26 08:25N 33°46' W 118°11'0 0.0
2018-Jul-26 07:43N 33°46' W 118°11'0 0.0
2018-Jul-26 07:28N 33°46' W 118°11'0 0.0
2018-Jul-26 06:58N 33°46' W 118°11'0 0.0
2018-Jul-26 06:10N 33°46' W 118°11'0 0.0
2018-Jul-26 05:55N 33°46' W 118°11'0 0.0
2018-Jul-26 05:28N 33°46' W 118°11'0 0.0
2018-Jul-26 04:52N 33°46' W 118°11'0 0.0
2018-Jul-26 04:28N 33°46' W 118°11'0 0.0
2018-Jul-26 03:58N 33°46' W 118°11'0 0.0
2018-Jul-26 03:22N 33°46' W 118°11'0 0.0
2018-Jul-26 02:58N 33°46' W 118°11'0 0.0
2018-Jul-26 02:28N 33°46' W 118°11'0 0.0
2018-Jul-26 01:58N 33°46' W 118°11'0 0.0
2018-Jul-26 01:28N 33°46' W 118°11'0 0.0
2018-Jul-26 00:58N 33°46' W 118°11'0 0.0
2018-Jul-26 00:28N 33°46' W 118°11'0 0.0
2018-Jul-25 23:46N 33°46' W 118°11'0 0.0
2018-Jul-25 23:16N 33°46' W 118°11'0 0.0
2018-Jul-25 22:58N 33°46' W 118°11'0 0.0
2018-Jul-25 22:28N 33°46' W 118°11'0 0.0
2018-Jul-25 21:58N 33°46' W 118°11'0 0.0
2018-Jul-25 21:13N 33°46' W 118°11'0 0.0
2018-Jul-25 20:58N 33°46' W 118°11'0 0.0
2018-Jul-25 20:25N 33°46' W 118°11'0 0.0
2018-Jul-25 19:40N 33°46' W 118°11'0 0.0
2018-Jul-25 19:28N 33°46' W 118°11'0 0.0
2018-Jul-25 18:46N 33°46' W 118°11'0 0.0
2018-Jul-25 18:25N 33°46' W 118°11'0 0.0
2018-Jul-25 17:58N 33°46' W 118°11'0 0.0
2018-Jul-25 17:13N 33°46' W 118°11'0 0.0
2018-Jul-25 16:58N 33°46' W 118°11'0 0.0
2018-Jul-25 15:55N 33°46' W 118°11'0 0.0
2018-Jul-25 15:28N 33°46' W 118°11'0 0.0
2018-Jul-25 14:52N 33°46' W 118°11'0 0.0
2018-Jul-25 14:04N 33°46' W 118°11'0 0.0
2018-Jul-25 13:16N 33°46' W 118°11'0 0.0
2018-Jul-25 12:55N 33°46' W 118°11'0 0.0
2018-Jul-25 12:25N 33°46' W 118°11'0 0.0
2018-Jul-25 11:55N 33°46' W 118°11'0 0.0
2018-Jul-25 11:10N 33°46' W 118°11'0 0.0
2018-Jul-25 10:55N 33°46' W 118°11'0 0.0
2018-Jul-25 10:28N 33°46' W 118°11'0 0.0
2018-Jul-25 09:16N 33°46' W 118°11'0 0.0
2018-Jul-25 08:52N 33°46' W 118°11'0 0.0
2018-Jul-25 08:22N 33°46' W 118°11'0 0.0
2018-Jul-25 07:58N 33°46' W 118°11'0 0.0
2018-Jul-25 07:16N 33°46' W 118°11'0 0.0
2018-Jul-25 06:49N 33°46' W 118°11'0 0.0
2018-Jul-25 06:28N 33°46' W 118°11'0 0.0
2018-Jul-25 05:56N 33°46' W 118°11'0 0.0
2018-Jul-25 05:25N 33°46' W 118°11'0 0.0
2018-Jul-25 04:53N 33°46' W 118°11'0 0.0
2018-Jul-25 04:25N 33°46' W 118°11'0 0.0
2018-Jul-25 03:56N 33°46' W 118°11'0 0.0
2018-Jul-25 03:26N 33°46' W 118°11'0 0.0
2018-Jul-25 02:59N 33°46' W 118°11'0 0.0
2018-Jul-25 02:23N 33°46' W 118°11'0 0.0
2018-Jul-25 01:59N 33°46' W 118°11'0 0.0
2018-Jul-25 01:11N 33°46' W 118°11'0 0.0
2018-Jul-25 00:59N 33°46' W 118°11'0 0.0
2018-Jul-25 00:29N 33°46' W 118°11'0 0.0
2018-Jul-24 23:59N 33°46' W 118°11'0 0.0
2018-Jul-24 23:26N 33°46' W 118°11'0 0.0
2018-Jul-24 22:56N 33°46' W 118°11'0 0.0
2018-Jul-24 22:26N 33°46' W 118°11'0 0.0
2018-Jul-24 21:35N 33°46' W 118°11'0 0.0
2018-Jul-24 21:29N 33°46' W 118°11'0 0.0
2018-Jul-24 20:53N 33°46' W 118°11'0 0.0
2018-Jul-24 20:17N 33°46' W 118°11'0 0.0
2018-Jul-24 19:50N 33°46' W 118°11'0 0.0
2018-Jul-24 19:08N 33°46' W 118°11'0 0.0
2018-Jul-24 18:59N 33°46' W 118°11'0 0.0
2018-Jul-24 18:17N 33°46' W 118°11'0 0.0
2018-Jul-24 17:44N 33°46' W 118°11'0 0.0
2018-Jul-24 17:20N 33°46' W 118°11'0 0.0
2018-Jul-24 16:59N 33°46' W 118°11'0 0.0
2018-Jul-24 16:20N 33°46' W 118°11'0 0.0
2018-Jul-24 15:59N 33°46' W 118°11'0 0.0
2018-Jul-24 15:26N 33°46' W 118°11'0 0.0
2018-Jul-24 14:20N 33°46' W 118°11'0 0.0
2018-Jul-24 13:47N 33°46' W 118°11'0 0.0
2018-Jul-24 13:29N 33°46' W 118°11'0 0.0
2018-Jul-24 12:56N 33°46' W 118°11'0 0.0
2018-Jul-24 12:20N 33°46' W 118°11'0 0.0
2018-Jul-24 11:59N 33°46' W 118°11'0 0.0
2018-Jul-24 11:23N 33°46' W 118°11'0 0.0
2018-Jul-24 10:47N 33°46' W 118°11'0 0.0
2018-Jul-24 10:23N 33°46' W 118°11'0 0.0
2018-Jul-24 09:56N 33°46' W 118°11'0 0.0
2018-Jul-24 09:26N 33°46' W 118°11'0 0.0
2018-Jul-24 08:56N 33°46' W 118°11'0 0.0
2018-Jul-24 08:14N 33°46' W 118°11'0 0.0
2018-Jul-24 07:56N 33°46' W 118°11'0 0.0
2018-Jul-24 07:23N 33°46' W 118°11'0 0.0
2018-Jul-24 06:53N 33°46' W 118°11'0 0.0
2018-Jul-24 06:26N 33°46' W 118°11'0 0.0
2018-Jul-24 05:56N 33°46' W 118°11'0 0.0
2018-Jul-24 05:26N 33°46' W 118°11'0 0.0
2018-Jul-24 04:56N 33°46' W 118°11'0 0.0
2018-Jul-24 04:26N 33°46' W 118°11'0 0.0
2018-Jul-24 03:59N 33°46' W 118°11'0 0.0
2018-Jul-24 02:50N 33°46' W 118°11'0 0.0
2018-Jul-24 02:29N 33°46' W 118°11'0 0.0
2018-Jul-24 01:50N 33°46' W 118°11'0 0.0
2018-Jul-24 01:26N 33°46' W 118°11'0 0.0
2018-Jul-24 00:59N 33°46' W 118°11'0 0.0
2018-Jul-24 00:29N 33°46' W 118°11'0 0.0
2018-Jul-23 23:53N 33°46' W 118°11'0 0.0
2018-Jul-23 23:29N 33°46' W 118°11'0 0.0
2018-Jul-23 22:59N 33°46' W 118°11'0 0.0
2018-Jul-23 22:29N 33°46' W 118°11'0 0.0
2018-Jul-23 21:53N 33°46' W 118°11'0 0.0
2018-Jul-23 21:23N 33°46' W 118°11'0 0.0
2018-Jul-23 20:56N 33°46' W 118°11'0 0.0
2018-Jul-23 20:26N 33°46' W 118°11'0 0.0
2018-Jul-23 19:17N 33°46' W 118°11'0 0.0
2018-Jul-23 18:50N 33°46' W 118°11'0 0.0
2018-Jul-23 18:23N 33°46' W 118°11'0 0.0
2018-Jul-23 17:08N 33°46' W 118°11'0 0.0
2018-Jul-23 16:44N 33°46' W 118°11'0 0.0
2018-Jul-23 16:29N 33°46' W 118°11'0 0.0
2018-Jul-23 15:47N 33°46' W 118°11'0 0.0
2018-Jul-23 15:20N 33°46' W 118°11'0 0.0
2018-Jul-23 14:56N 33°46' W 118°11'0 0.0
2018-Jul-23 14:29N 33°46' W 118°11'0 0.0
2018-Jul-23 13:47N 33°46' W 118°11'0 0.0
2018-Jul-23 13:29N 33°46' W 118°11'0 0.0
2018-Jul-23 12:59N 33°46' W 118°11'0 0.0
2018-Jul-23 12:20N 33°46' W 118°11'0 0.0
2018-Jul-23 11:56N 33°46' W 118°11'0 0.0
2018-Jul-23 11:29N 33°46' W 118°11'0 0.0
2018-Jul-23 10:59N 33°46' W 118°11'0 0.0
2018-Jul-23 10:20N 33°46' W 118°11'0 0.0
2018-Jul-23 09:53N 33°46' W 118°11'0 0.0
2018-Jul-23 09:29N 33°46' W 118°11'0 0.0
2018-Jul-23 08:59N 33°46' W 118°11'0 0.0
2018-Jul-23 08:29N 33°46' W 118°11'0 0.0
2018-Jul-23 07:53N 33°46' W 118°11'0 0.0
2018-Jul-23 07:29N 33°46' W 118°11'0 0.0
2018-Jul-23 06:59N 33°46' W 118°11'0 0.0
2018-Jul-23 06:20N 33°46' W 118°11'0 0.0
2018-Jul-23 05:59N 33°46' W 118°11'0 0.0
2018-Jul-23 05:26N 33°46' W 118°11'0 0.0
2018-Jul-23 04:59N 33°46' W 118°11'0 0.0
2018-Jul-23 04:29N 33°46' W 118°11'0 0.0
2018-Jul-23 03:56N 33°46' W 118°11'0 0.0
2018-Jul-23 03:26N 33°46' W 118°11'0 0.0
2018-Jul-23 02:59N 33°46' W 118°11'0 0.0
2018-Jul-23 02:26N 33°46' W 118°11'0 0.0
2018-Jul-23 01:50N 33°46' W 118°11'0 0.0
2018-Jul-23 01:23N 33°46' W 118°11'0 0.0
2018-Jul-23 00:56N 33°46' W 118°11'0 0.0
2018-Jul-23 00:26N 33°46' W 118°11'0 0.0
2018-Jul-22 23:59N 33°46' W 118°11'0 0.0
2018-Jul-22 23:17N 33°46' W 118°11'0 0.0
2018-Jul-22 22:50N 33°46' W 118°11'0 0.0
2018-Jul-22 22:29N 33°46' W 118°11'0 0.0
2018-Jul-22 21:56N 33°46' W 118°11'0 0.0
2018-Jul-22 21:29N 33°46' W 118°11'1 1.2
2018-Jul-22 20:59N 33°45' W 118°11'3 6.7
2018-Jul-22 20:30N 33°43' W 118°14'2 4.5
2018-Jul-22 20:00N 33°41' W 118°15'2 3.1
2018-Jul-22 19:30N 33°40' W 118°15'5 8.6
2018-Jul-22 18:57N 33°36' W 118°19'11 0.4
2018-Jul-21 18:54N 33°26' W 118°24'6 2.9
2018-Jul-21 16:47N 33°21' W 118°20'9 0.2
2018-Jul-19 19:29N 33°30' W 118°17'3 7.1
2018-Jul-19 19:00N 33°33' W 118°15'4 7.3
2018-Jul-19 18:30N 33°37' W 118°14'3 7.0
2018-Jul-19 18:00N 33°40' W 118°12'3 6.7
2018-Jul-19 17:29N 33°43' W 118°11'2 5.1
2018-Jul-19 17:00N 33°46' W 118°11'0 0.2
2018-Jul-19 16:30N 33°46' W 118°11'0 0.3
2018-Jul-19 15:45N 33°46' W 118°11'0 0.0
2018-Jul-19 15:24N 33°46' W 118°11'0 0.0
2018-Jul-19 14:54N 33°46' W 118°11'0 0.0
2018-Jul-19 14:30N 33°46' W 118°11'0 0.0
2018-Jul-19 13:24N 33°46' W 118°11'0 0.0
2018-Jul-19 13:00N 33°46' W 118°11'0 0.0
2018-Jul-19 12:27N 33°46' W 118°11'0 0.0
2018-Jul-19 12:00N 33°46' W 118°11'0 0.0
2018-Jul-19 11:30N 33°46' W 118°11'0 0.0
2018-Jul-19 10:54N 33°46' W 118°11'0 0.0
2018-Jul-19 10:30N 33°46' W 118°11'0 0.0
2018-Jul-19 09:54N 33°46' W 118°11'0 0.0
2018-Jul-19 09:21N 33°46' W 118°11'0 0.0
2018-Jul-19 09:00N 33°46' W 118°11'0 0.0
2018-Jul-19 08:24N 33°46' W 118°11'0 0.0
2018-Jul-19 07:54N 33°46' W 118°11'0 0.0
2018-Jul-19 07:21N 33°46' W 118°11'0 0.0
2018-Jul-19 06:45N 33°46' W 118°11'0 0.0
2018-Jul-19 06:30N 33°46' W 118°11'  
Track history (hours):
 
Tides and Currents Weather Stations Pressure Air Temp Water Temp Dewpoint Dewpoint Depression Visibility Wind Speed Wind Dir Waves Ship Positions

Liberte

Owner: Liberte Marine LLC, Tucson, AZ. More information available from US FCC via Universal Licensing System and Coast Guard Vessel Documentation Center.

Last reported at 2018-Jul-29 06:24 UTC. Time now 2018-Aug-20 16:19 UTC.
Position N 32°26' W 117°28'.
Warning: this ship's position is 22 days out of date.

Length 14 m.

Type: Sailing vessel. MMSI: 367535590.

Date/timePositionNaut miles runAvg speedWind from/ knotsBaromVisibWave heightAir tempDewpointWater temp
2018-Jul-29 06:24N 32°26' W 117°28'3 7.4
2018-Jul-29 06:00N 32°29' W 117°30'4 7.7
2018-Jul-29 05:30N 32°32' W 117°31'4 7.7
2018-Jul-29 04:59N 32°36' W 117°33'4 7.7
2018-Jul-29 04:30N 32°40' W 117°34'4 7.7
2018-Jul-29 04:00N 32°43' W 117°35'4 7.6
2018-Jul-29 03:31N 32°47' W 117°36'4 7.7
2018-Jul-29 02:59N 32°51' W 117°37'4 7.7
2018-Jul-29 02:30N 32°54' W 117°39'4 7.6
2018-Jul-29 02:00N 32°58' W 117°41'4 7.9
2018-Jul-29 01:30N 33°02' W 117°43'4 7.6
2018-Jul-29 00:59N 33°05' W 117°44'4 7.5
2018-Jul-29 00:30N 33°09' W 117°46'4 7.4
2018-Jul-29 00:00N 33°12' W 117°48'4 7.3
2018-Jul-28 23:30N 33°15' W 117°50'4 7.0
2018-Jul-28 22:59N 33°18' W 117°52'4 6.8
2018-Jul-28 22:27N 33°22' W 117°54'3 6.6
2018-Jul-28 21:58N 33°24' W 117°56'17 6.1
2018-Jul-28 19:12N 33°39' W 118°06'1 6.6
2018-Jul-28 19:00N 33°40' W 118°06'3 5.7
2018-Jul-28 18:30N 33°43' W 118°08'3 6.0
2018-Jul-28 18:01N 33°45' W 118°10'1 1.9
2018-Jul-28 17:25N 33°46' W 118°11'0 0.0
2018-Jul-28 16:52N 33°46' W 118°11'0 0.0
2018-Jul-28 16:25N 33°46' W 118°11'0 0.0
2018-Jul-28 15:55N 33°46' W 118°11'0 0.0
2018-Jul-28 15:25N 33°46' W 118°11'0 0.0
2018-Jul-28 14:49N 33°46' W 118°11'0 0.0
2018-Jul-28 14:22N 33°46' W 118°11'0 0.0
2018-Jul-28 13:52N 33°46' W 118°11'0 0.0
2018-Jul-28 13:28N 33°46' W 118°11'0 0.0
2018-Jul-28 12:52N 33°46' W 118°11'0 0.0
2018-Jul-28 12:28N 33°46' W 118°11'0 0.0
2018-Jul-28 11:49N 33°46' W 118°11'0 0.0
2018-Jul-28 11:28N 33°46' W 118°11'0 0.0
2018-Jul-28 10:58N 33°46' W 118°11'0 0.0
2018-Jul-28 10:28N 33°46' W 118°11'0 0.0
2018-Jul-28 09:52N 33°46' W 118°11'0 0.0
2018-Jul-28 09:19N 33°46' W 118°11'0 0.0
2018-Jul-28 08:52N 33°46' W 118°11'0 0.0
2018-Jul-28 08:28N 33°46' W 118°11'0 0.0
2018-Jul-28 07:55N 33°46' W 118°11'0 0.0
2018-Jul-28 07:25N 33°46' W 118°11'0 0.0
2018-Jul-28 06:52N 33°46' W 118°11'0 0.0
2018-Jul-28 06:19N 33°46' W 118°11'0 0.0
2018-Jul-28 05:58N 33°46' W 118°11'0 0.0
2018-Jul-28 05:13N 33°46' W 118°11'0 0.0
2018-Jul-28 04:49N 33°46' W 118°11'0 0.0
2018-Jul-28 04:25N 33°46' W 118°11'0 0.0
2018-Jul-28 03:58N 33°46' W 118°11'0 0.0
2018-Jul-28 03:28N 33°46' W 118°11'0 0.0
2018-Jul-28 02:58N 33°46' W 118°11'0 0.0
2018-Jul-28 02:28N 33°46' W 118°11'0 0.0
2018-Jul-28 01:58N 33°46' W 118°11'0 0.0
2018-Jul-28 01:22N 33°46' W 118°11'0 0.0
2018-Jul-28 00:58N 33°46' W 118°11'0 0.0
2018-Jul-28 00:28N 33°46' W 118°11'0 0.0
2018-Jul-27 23:52N 33°46' W 118°11'0 0.0
2018-Jul-27 23:28N 33°46' W 118°11'0 0.0
2018-Jul-27 22:52N 33°46' W 118°11'0 0.0
2018-Jul-27 22:28N 33°46' W 118°11'0 0.0
2018-Jul-27 21:55N 33°46' W 118°11'0 0.0
2018-Jul-27 21:19N 33°46' W 118°11'0 0.0
2018-Jul-27 20:52N 33°46' W 118°11'0 0.0
2018-Jul-27 20:19N 33°46' W 118°11'0 0.0
2018-Jul-27 19:58N 33°46' W 118°11'0 0.0
2018-Jul-27 19:22N 33°46' W 118°11'0 0.0
2018-Jul-27 18:55N 33°46' W 118°11'0 0.0
2018-Jul-27 18:25N 33°46' W 118°11'0 0.0
2018-Jul-27 17:55N 33°46' W 118°11'0 0.0
2018-Jul-27 17:28N 33°46' W 118°11'0 0.0
2018-Jul-27 16:58N 33°46' W 118°11'0 0.0
2018-Jul-27 16:25N 33°46' W 118°11'0 0.0
2018-Jul-27 15:58N 33°46' W 118°11'0 0.0
2018-Jul-27 15:25N 33°46' W 118°11'0 0.0
2018-Jul-27 14:58N 33°46' W 118°11'0 0.0
2018-Jul-27 14:28N 33°46' W 118°11'0 0.0
2018-Jul-27 13:55N 33°46' W 118°11'0 0.0
2018-Jul-27 13:19N 33°46' W 118°11'0 0.0
2018-Jul-27 12:58N 33°46' W 118°11'0 0.0
2018-Jul-27 12:25N 33°46' W 118°11'0 0.0
2018-Jul-27 11:55N 33°46' W 118°11'0 0.0
2018-Jul-27 11:16N 33°46' W 118°11'0 0.0
2018-Jul-27 10:43N 33°46' W 118°11'0 0.0
2018-Jul-27 10:28N 33°46' W 118°11'0 0.0
2018-Jul-27 09:55N 33°46' W 118°11'0 0.0
2018-Jul-27 09:28N 33°46' W 118°11'0 0.0
2018-Jul-27 08:46N 33°46' W 118°11'0 0.0
2018-Jul-27 08:22N 33°46' W 118°11'0 0.0
2018-Jul-27 07:52N 33°46' W 118°11'0 0.0
2018-Jul-27 07:22N 33°46' W 118°11'0 0.0
2018-Jul-27 06:55N 33°46' W 118°11'0 0.0
2018-Jul-27 06:13N 33°46' W 118°11'0 0.0
2018-Jul-27 05:49N 33°46' W 118°11'0 0.0
2018-Jul-27 05:28N 33°46' W 118°11'0 0.0
2018-Jul-27 04:49N 33°46' W 118°11'0 0.0
2018-Jul-27 04:28N 33°46' W 118°11'0 0.0
2018-Jul-27 03:55N 33°46' W 118°11'0 0.0
2018-Jul-27 03:25N 33°46' W 118°11'0 0.0
2018-Jul-27 02:52N 33°46' W 118°11'0 0.0
2018-Jul-27 02:22N 33°46' W 118°11'0 0.0
2018-Jul-27 01:58N 33°46' W 118°11'0 0.0
2018-Jul-27 01:22N 33°46' W 118°11'0 0.0
2018-Jul-27 00:58N 33°46' W 118°11'0 0.0
2018-Jul-27 00:25N 33°46' W 118°11'0 0.0
2018-Jul-26 23:58N 33°46' W 118°11'0 0.0
2018-Jul-26 23:28N 33°46' W 118°11'0 0.0
2018-Jul-26 22:46N 33°46' W 118°11'0 0.0
2018-Jul-26 22:25N 33°46' W 118°11'0 0.0
2018-Jul-26 21:52N 33°46' W 118°11'0 0.0
2018-Jul-26 21:04N 33°46' W 118°11'0 0.0
2018-Jul-26 20:46N 33°46' W 118°11'0 0.0
2018-Jul-26 20:28N 33°46' W 118°11'0 0.0
2018-Jul-26 19:55N 33°46' W 118°11'0 0.0
2018-Jul-26 19:16N 33°46' W 118°11'0 0.0
2018-Jul-26 18:52N 33°46' W 118°11'0 0.0
2018-Jul-26 18:25N 33°46' W 118°11'0 0.0
2018-Jul-26 17:58N 33°46' W 118°11'0 0.0
2018-Jul-26 17:28N 33°46' W 118°11'0 0.0
2018-Jul-26 16:49N 33°46' W 118°11'0 0.0
2018-Jul-26 16:22N 33°46' W 118°11'0 0.0
2018-Jul-26 15:13N 33°46' W 118°11'0 0.0
2018-Jul-26 14:58N 33°46' W 118°11'0 0.0
2018-Jul-26 14:28N 33°46' W 118°11'0 0.0
2018-Jul-26 13:52N 33°46' W 118°11'0 0.0
2018-Jul-26 13:28N 33°46' W 118°11'0 0.0
2018-Jul-26 12:58N 33°46' W 118°11'0 0.0
2018-Jul-26 12:19N 33°46' W 118°11'0 0.0
2018-Jul-26 11:58N 33°46' W 118°11'0 0.0
2018-Jul-26 11:28N 33°46' W 118°11'0 0.0
2018-Jul-26 10:52N 33°46' W 118°11'0 0.0
2018-Jul-26 10:22N 33°46' W 118°11'0 0.0
2018-Jul-26 09:58N 33°46' W 118°11'0 0.0
2018-Jul-26 09:28N 33°46' W 118°11'0 0.0
2018-Jul-26 08:58N 33°46' W 118°11'0 0.0
2018-Jul-26 08:25N 33°46' W 118°11'0 0.0
2018-Jul-26 07:43N 33°46' W 118°11'0 0.0
2018-Jul-26 07:28N 33°46' W 118°11'0 0.0
2018-Jul-26 06:58N 33°46' W 118°11'0 0.0
2018-Jul-26 06:10N 33°46' W 118°11'0 0.0
2018-Jul-26 05:55N 33°46' W 118°11'0 0.0
2018-Jul-26 05:28N 33°46' W 118°11'0 0.0
2018-Jul-26 04:52N 33°46' W 118°11'0 0.0
2018-Jul-26 04:28N 33°46' W 118°11'0 0.0
2018-Jul-26 03:58N 33°46' W 118°11'0 0.0
2018-Jul-26 03:22N 33°46' W 118°11'0 0.0
2018-Jul-26 02:58N 33°46' W 118°11'0 0.0
2018-Jul-26 02:28N 33°46' W 118°11'0 0.0
2018-Jul-26 01:58N 33°46' W 118°11'0 0.0
2018-Jul-26 01:28N 33°46' W 118°11'0 0.0
2018-Jul-26 00:58N 33°46' W 118°11'0 0.0
2018-Jul-26 00:28N 33°46' W 118°11'0 0.0
2018-Jul-25 23:46N 33°46' W 118°11'0 0.0
2018-Jul-25 23:16N 33°46' W 118°11'0 0.0
2018-Jul-25 22:58N 33°46' W 118°11'0 0.0
2018-Jul-25 22:28N 33°46' W 118°11'0 0.0
2018-Jul-25 21:58N 33°46' W 118°11'0 0.0
2018-Jul-25 21:13N 33°46' W 118°11'0 0.0
2018-Jul-25 20:58N 33°46' W 118°11'0 0.0
2018-Jul-25 20:25N 33°46' W 118°11'0 0.0
2018-Jul-25 19:40N 33°46' W 118°11'0 0.0
2018-Jul-25 19:28N 33°46' W 118°11'0 0.0
2018-Jul-25 18:46N 33°46' W 118°11'0 0.0
2018-Jul-25 18:25N 33°46' W 118°11'0 0.0
2018-Jul-25 17:58N 33°46' W 118°11'0 0.0
2018-Jul-25 17:13N 33°46' W 118°11'0 0.0
2018-Jul-25 16:58N 33°46' W 118°11'0 0.0
2018-Jul-25 15:55N 33°46' W 118°11'0 0.0
2018-Jul-25 15:28N 33°46' W 118°11'0 0.0
2018-Jul-25 14:52N 33°46' W 118°11'0 0.0
2018-Jul-25 14:04N 33°46' W 118°11'0 0.0
2018-Jul-25 13:16N 33°46' W 118°11'0 0.0
2018-Jul-25 12:55N 33°46' W 118°11'0 0.0
2018-Jul-25 12:25N 33°46' W 118°11'0 0.0
2018-Jul-25 11:55N 33°46' W 118°11'0 0.0
2018-Jul-25 11:10N 33°46' W 118°11'0 0.0
2018-Jul-25 10:55N 33°46' W 118°11'0 0.0
2018-Jul-25 10:28N 33°46' W 118°11'0 0.0
2018-Jul-25 09:16N 33°46' W 118°11'0 0.0
2018-Jul-25 08:52N 33°46' W 118°11'0 0.0
2018-Jul-25 08:22N 33°46' W 118°11'0 0.0
2018-Jul-25 07:58N 33°46' W 118°11'0 0.0
2018-Jul-25 07:16N 33°46' W 118°11'0 0.0
2018-Jul-25 06:49N 33°46' W 118°11'0 0.0
2018-Jul-25 06:28N 33°46' W 118°11'0 0.0
2018-Jul-25 05:56N 33°46' W 118°11'0 0.0
2018-Jul-25 05:25N 33°46' W 118°11'0 0.0
2018-Jul-25 04:53N 33°46' W 118°11'0 0.0
2018-Jul-25 04:25N 33°46' W 118°11'0 0.0
2018-Jul-25 03:56N 33°46' W 118°11'0 0.0
2018-Jul-25 03:26N 33°46' W 118°11'0 0.0
2018-Jul-25 02:59N 33°46' W 118°11'0 0.0
2018-Jul-25 02:23N 33°46' W 118°11'0 0.0
2018-Jul-25 01:59N 33°46' W 118°11'0 0.0
2018-Jul-25 01:11N 33°46' W 118°11'0 0.0
2018-Jul-25 00:59N 33°46' W 118°11'0 0.0
2018-Jul-25 00:29N 33°46' W 118°11'0 0.0
2018-Jul-24 23:59N 33°46' W 118°11'0 0.0
2018-Jul-24 23:26N 33°46' W 118°11'0 0.0
2018-Jul-24 22:56N 33°46' W 118°11'0 0.0
2018-Jul-24 22:26N 33°46' W 118°11'0 0.0
2018-Jul-24 21:35N 33°46' W 118°11'0 0.0
2018-Jul-24 21:29N 33°46' W 118°11'0 0.0
2018-Jul-24 20:53N 33°46' W 118°11'0 0.0
2018-Jul-24 20:17N 33°46' W 118°11'0 0.0
2018-Jul-24 19:50N 33°46' W 118°11'0 0.0
2018-Jul-24 19:08N 33°46' W 118°11'0 0.0
2018-Jul-24 18:59N 33°46' W 118°11'0 0.0
2018-Jul-24 18:17N 33°46' W 118°11'0 0.0
2018-Jul-24 17:44N 33°46' W 118°11'0 0.0
2018-Jul-24 17:20N 33°46' W 118°11'0 0.0
2018-Jul-24 16:59N 33°46' W 118°11'0 0.0
2018-Jul-24 16:20N 33°46' W 118°11'0 0.0
2018-Jul-24 15:59N 33°46' W 118°11'0 0.0
2018-Jul-24 15:26N 33°46' W 118°11'0 0.0
2018-Jul-24 14:20N 33°46' W 118°11'0 0.0
2018-Jul-24 13:47N 33°46' W 118°11'0 0.0
2018-Jul-24 13:29N 33°46' W 118°11'0 0.0
2018-Jul-24 12:56N 33°46' W 118°11'0 0.0
2018-Jul-24 12:20N 33°46' W 118°11'0 0.0
2018-Jul-24 11:59N 33°46' W 118°11'0 0.0
2018-Jul-24 11:23N 33°46' W 118°11'0 0.0
2018-Jul-24 10:47N 33°46' W 118°11'0 0.0
2018-Jul-24 10:23N 33°46' W 118°11'0 0.0
2018-Jul-24 09:56N 33°46' W 118°11'0 0.0
2018-Jul-24 09:26N 33°46' W 118°11'0 0.0
2018-Jul-24 08:56N 33°46' W 118°11'0 0.0
2018-Jul-24 08:14N 33°46' W 118°11'0 0.0
2018-Jul-24 07:56N 33°46' W 118°11'0 0.0
2018-Jul-24 07:23N 33°46' W 118°11'0 0.0
2018-Jul-24 06:53N 33°46' W 118°11'0 0.0
2018-Jul-24 06:26N 33°46' W 118°11'0 0.0
2018-Jul-24 05:56N 33°46' W 118°11'0 0.0
2018-Jul-24 05:26N 33°46' W 118°11'0 0.0
2018-Jul-24 04:56N 33°46' W 118°11'0 0.0
2018-Jul-24 04:26N 33°46' W 118°11'0 0.0
2018-Jul-24 03:59N 33°46' W 118°11'0 0.0
2018-Jul-24 02:50N 33°46' W 118°11'0 0.0
2018-Jul-24 02:29N 33°46' W 118°11'0 0.0
2018-Jul-24 01:50N 33°46' W 118°11'0 0.0
2018-Jul-24 01:26N 33°46' W 118°11'0 0.0
2018-Jul-24 00:59N 33°46' W 118°11'0 0.0
2018-Jul-24 00:29N 33°46' W 118°11'0 0.0
2018-Jul-23 23:53N 33°46' W 118°11'0 0.0
2018-Jul-23 23:29N 33°46' W 118°11'0 0.0
2018-Jul-23 22:59N 33°46' W 118°11'0 0.0
2018-Jul-23 22:29N 33°46' W 118°11'0 0.0
2018-Jul-23 21:53N 33°46' W 118°11'0 0.0
2018-Jul-23 21:23N 33°46' W 118°11'0 0.0
2018-Jul-23 20:56N 33°46' W 118°11'0 0.0
2018-Jul-23 20:26N 33°46' W 118°11'0 0.0
2018-Jul-23 19:17N 33°46' W 118°11'0 0.0
2018-Jul-23 18:50N 33°46' W 118°11'0 0.0
2018-Jul-23 18:23N 33°46' W 118°11'0 0.0
2018-Jul-23 17:08N 33°46' W 118°11'0 0.0
2018-Jul-23 16:44N 33°46' W 118°11'0 0.0
2018-Jul-23 16:29N 33°46' W 118°11'0 0.0
2018-Jul-23 15:47N 33°46' W 118°11'0 0.0
2018-Jul-23 15:20N 33°46' W 118°11'0 0.0
2018-Jul-23 14:56N 33°46' W 118°11'0 0.0
2018-Jul-23 14:29N 33°46' W 118°11'0 0.0
2018-Jul-23 13:47N 33°46' W 118°11'0 0.0
2018-Jul-23 13:29N 33°46' W 118°11'0 0.0
2018-Jul-23 12:59N 33°46' W 118°11'0 0.0
2018-Jul-23 12:20N 33°46' W 118°11'0 0.0
2018-Jul-23 11:56N 33°46' W 118°11'0 0.0
2018-Jul-23 11:29N 33°46' W 118°11'0 0.0
2018-Jul-23 10:59N 33°46' W 118°11'0 0.0
2018-Jul-23 10:20N 33°46' W 118°11'0 0.0
2018-Jul-23 09:53N 33°46' W 118°11'0 0.0
2018-Jul-23 09:29N 33°46' W 118°11'0 0.0
2018-Jul-23 08:59N 33°46' W 118°11'0 0.0
2018-Jul-23 08:29N 33°46' W 118°11'0 0.0
2018-Jul-23 07:53N 33°46' W 118°11'0 0.0
2018-Jul-23 07:29N 33°46' W 118°11'0 0.0
2018-Jul-23 06:59N 33°46' W 118°11'0 0.0
2018-Jul-23 06:20N 33°46' W 118°11'0 0.0
2018-Jul-23 05:59N 33°46' W 118°11'0 0.0
2018-Jul-23 05:26N 33°46' W 118°11'0 0.0
2018-Jul-23 04:59N 33°46' W 118°11'0 0.0
2018-Jul-23 04:29N 33°46' W 118°11'0 0.0
2018-Jul-23 03:56N 33°46' W 118°11'0 0.0
2018-Jul-23 03:26N 33°46' W 118°11'0 0.0
2018-Jul-23 02:59N 33°46' W 118°11'0 0.0
2018-Jul-23 02:26N 33°46' W 118°11'0 0.0
2018-Jul-23 01:50N 33°46' W 118°11'0 0.0
2018-Jul-23 01:23N 33°46' W 118°11'0 0.0
2018-Jul-23 00:56N 33°46' W 118°11'0 0.0
2018-Jul-23 00:26N 33°46' W 118°11'0 0.0
2018-Jul-22 23:59N 33°46' W 118°11'0 0.0
2018-Jul-22 23:17N 33°46' W 118°11'0 0.0
2018-Jul-22 22:50N 33°46' W 118°11'0 0.0
2018-Jul-22 22:29N 33°46' W 118°11'0 0.0
2018-Jul-22 21:56N 33°46' W 118°11'0 0.0
2018-Jul-22 21:29N 33°46' W 118°11'1 1.2
2018-Jul-22 20:59N 33°45' W 118°11'3 6.7
2018-Jul-22 20:30N 33°43' W 118°14'2 4.5
2018-Jul-22 20:00N 33°41' W 118°15'2 3.1
2018-Jul-22 19:30N 33°40' W 118°15'5 8.6
2018-Jul-22 18:57N 33°36' W 118°19'11 0.4
2018-Jul-21 18:54N 33°26' W 118°24'6 2.9
2018-Jul-21 16:47N 33°21' W 118°20'9 0.2
2018-Jul-19 19:29N 33°30' W 118°17'3 7.1
2018-Jul-19 19:00N 33°33' W 118°15'4 7.3
2018-Jul-19 18:30N 33°37' W 118°14'3 7.0
2018-Jul-19 18:00N 33°40' W 118°12'3 6.7
2018-Jul-19 17:29N 33°43' W 118°11'2 5.1
2018-Jul-19 17:00N 33°46' W 118°11'0 0.2
2018-Jul-19 16:30N 33°46' W 118°11'0 0.3
2018-Jul-19 15:45N 33°46' W 118°11'0 0.0
2018-Jul-19 15:24N 33°46' W 118°11'0 0.0
2018-Jul-19 14:54N 33°46' W 118°11'0 0.0
2018-Jul-19 14:30N 33°46' W 118°11'0 0.0
2018-Jul-19 13:24N 33°46' W 118°11'0 0.0
2018-Jul-19 13:00N 33°46' W 118°11'0 0.0
2018-Jul-19 12:27N 33°46' W 118°11'0 0.0
2018-Jul-19 12:00N 33°46' W 118°11'0 0.0
2018-Jul-19 11:30N 33°46' W 118°11'0 0.0
2018-Jul-19 10:54N 33°46' W 118°11'0 0.0
2018-Jul-19 10:30N 33°46' W 118°11'0 0.0
2018-Jul-19 09:54N 33°46' W 118°11'0 0.0
2018-Jul-19 09:21N 33°46' W 118°11'0 0.0
2018-Jul-19 09:00N 33°46' W 118°11'0 0.0
2018-Jul-19 08:24N 33°46' W 118°11'0 0.0
2018-Jul-19 07:54N 33°46' W 118°11'0 0.0
2018-Jul-19 07:21N 33°46' W 118°11'0 0.0
2018-Jul-19 06:45N 33°46' W 118°11'0 0.0
2018-Jul-19 06:30N 33°46' W 118°11'  

Dump ship's entire track history